This is the latest recevied weather packets stored in our database for station/object KD4EG. If no packets are shown the sender has not sent any weather packets the latest 1 day(s).
| Time | Temp. | Humidity | Pressure | Rain* | Wind** | Luminosity | Snow |
|---|---|---|---|---|---|---|---|
| 1777987394 | 17.78° C | 60% | 1017.4 hPa | 0 mm | 0.89 m/s, 135° | 436 W/m² | - |
| 1777987091 | 17.78° C | 61% | 1017.4 hPa | 0 mm | 1.34 m/s, 234° | 442 W/m² | - |
| 1777986788 | 17.22° C | 62% | 1017.3 hPa | 0 mm | 1.34 m/s, 190° | 406 W/m² | - |
| 1777986486 | 17.22° C | 62% | 1017.5 hPa | 0 mm | 0.45 m/s, 194° | 370 W/m² | - |
| 1777986186 | 17.22° C | 63% | 1017.4 hPa | 0 mm | 1.79 m/s, 184° | 345 W/m² | - |
| 1777985881 | 16.67° C | 63% | 1017.3 hPa | 0 mm | 1.79 m/s, 204° | 335 W/m² | - |
| 1777985578 | 16.67° C | 64% | 1017.5 hPa | 0 mm | 0.45 m/s, 237° | 322 W/m² | - |
| 1777985274 | 16.67° C | 64% | 1017.3 hPa | 0 mm | 0.89 m/s, 234° | 295 W/m² | - |
| 1777984971 | 16.11° C | 65% | 1017.1 hPa | 0 mm | 0 m/s | 261 W/m² | - |
| 1777984666 | 15.56° C | 66% | 1017.1 hPa | 0 mm | 0.89 m/s, 325° | 245 W/m² | - |
| 1777984364 | 15.56° C | 66% | 1017.2 hPa | 0 mm | 0.45 m/s, 249° | 238 W/m² | - |
| 1777984060 | 15.56° C | 66% | 1017.1 hPa | 0 mm | 0.45 m/s, 287° | 220 W/m² | - |
| 1777983757 | 15° C | 67% | 1017.3 hPa | 0 mm | 0.45 m/s, 250° | 217 W/m² | - |
| 1777983454 | 15° C | 67% | 1017.2 hPa | 0 mm | 1.79 m/s, 309° | 206 W/m² | - |
| 1777983151 | 14.44° C | 68% | 1017.3 hPa | 0 mm | 1.79 m/s, 287° | 122 W/m² | - |
| 1777982847 | 13.89° C | 69% | 1017.3 hPa | 0 mm | 0.45 m/s, 286° | 47 W/m² | - |
| 1777982543 | 13.89° C | 70% | 1017.1 hPa | 0 mm | 1.79 m/s, 285° | 46 W/m² | - |
| 1777982241 | 13.33° C | 71% | 1017.2 hPa | 0 mm | 1.34 m/s, 295° | 44 W/m² | - |
| 1777981940 | 13.33° C | 71% | 1017.4 hPa | 0 mm | 0.45 m/s, 25° | 42 W/m² | - |
| 1777981637 | 12.78° C | 73% | 1017.5 hPa | 0 mm | 0.89 m/s, 309° | 41 W/m² | - |
| 1777981333 | 12.78° C | 75% | 1017.4 hPa | 0 mm | 0.45 m/s, 348° | 39 W/m² | - |
| 1777981029 | 11.67° C | 79% | 1017.3 hPa | 0 mm | 0.45 m/s, 301° | 37 W/m² | - |
| 1777980726 | 11.67° C | 81% | 1017.2 hPa | 0 mm | 0 m/s | 35 W/m² | - |
| 1777980422 | 11.67° C | 81% | 1017.3 hPa | 0 mm | 0 m/s | 29 W/m² | - |
| 1777980121 | 11.67° C | 80% | 1017.2 hPa | 0 mm | 0 m/s | 25 W/m² | - |
* Rain latest hour (hover to see other rain measurements)
** Current wind speed in m/s (hover to see current wind gust speed)